sensor_id;sensor_type;location;lat;lon;timestamp;temperature;humidity
53045;DHT22;38930;52.766;6.884;2023-05-08T00:02:00;12.80;99.90
53045;DHT22;38930;52.766;6.884;2023-05-08T00:04:26;12.70;99.90
53045;DHT22;38930;52.766;6.884;2023-05-08T00:06:52;12.70;99.90
53045;DHT22;38930;52.766;6.884;2023-05-08T00:09:18;12.70;99.90
53045;DHT22;38930;52.766;6.884;2023-05-08T00:11:44;12.60;99.90
53045;DHT22;38930;52.766;6.884;2023-05-08T00:14:10;12.70;99.90
53045;DHT22;38930;52.766;6.884;2023-05-08T00:16:35;12.60;99.90
53045;DHT22;38930;52.766;6.884;2023-05-08T00:19:02;12.70;99.90
53045;DHT22;38930;52.766;6.884;2023-05-08T00:21:27;12.60;99.90
53045;DHT22;38930;52.766;6.884;2023-05-08T00:23:53;12.50;99.90
53045;DHT22;38930;52.766;6.884;2023-05-08T00:26:18;12.50;99.90
53045;DHT22;38930;52.766;6.884;2023-05-08T00:28:46;12.50;99.90
53045;DHT22;38930;52.766;6.884;2023-05-08T00:31:11;12.40;99.90
53045;DHT22;38930;52.766;6.884;2023-05-08T00:33:38;12.50;99.90
53045;DHT22;38930;52.766;6.884;2023-05-08T00:36:04;12.40;99.90
53045;DHT22;38930;52.766;6.884;2023-05-08T00:38:34;12.40;99.90
53045;DHT22;38930;52.766;6.884;2023-05-08T00:41:01;12.40;99.90
53045;DHT22;38930;52.766;6.884;2023-05-08T00:43:27;12.40;99.90
53045;DHT22;38930;52.766;6.884;2023-05-08T00:45:58;12.30;99.90
53045;DHT22;38930;52.766;6.884;2023-05-08T00:48:28;12.30;99.90
53045;DHT22;38930;52.766;6.884;2023-05-08T00:50:55;12.40;99.90
53045;DHT22;38930;52.766;6.884;2023-05-08T00:53:21;12.30;99.90
53045;DHT22;38930;52.766;6.884;2023-05-08T00:55:48;12.30;99.90
53045;DHT22;38930;52.766;6.884;2023-05-08T00:58:15;12.30;99.90
53045;DHT22;38930;52.766;6.884;2023-05-08T01:00:43;12.30;99.90
53045;DHT22;38930;52.766;6.884;2023-05-08T01:03:08;12.30;99.90
53045;DHT22;38930;52.766;6.884;2023-05-08T01:05:35;12.30;99.90
53045;DHT22;38930;52.766;6.884;2023-05-08T01:08:01;12.30;99.90
53045;DHT22;38930;52.766;6.884;2023-05-08T01:10:34;12.40;99.90
53045;DHT22;38930;52.766;6.884;2023-05-08T01:13:13;12.30;99.90
53045;DHT22;38930;52.766;6.884;2023-05-08T01:15:46;12.20;99.90
53045;DHT22;38930;52.766;6.884;2023-05-08T01:18:20;12.20;99.90
53045;DHT22;38930;52.766;6.884;2023-05-08T01:32:16;12.10;99.90
53045;DHT22;38930;52.766;6.884;2023-05-08T01:37:44;12.00;99.90
53045;DHT22;38930;52.766;6.884;2023-05-08T01:40:18;12.00;99.90
53045;DHT22;38930;52.766;6.884;2023-05-08T01:43:11;11.90;99.90
53045;DHT22;38930;52.766;6.884;2023-05-08T01:45:40;11.90;99.90
53045;DHT22;38930;52.766;6.884;2023-05-08T01:48:31;11.90;99.90
53045;DHT22;38930;52.766;6.884;2023-05-08T01:51:03;11.80;99.90
53045;DHT22;38930;52.766;6.884;2023-05-08T01:53:36;11.80;99.90
53045;DHT22;38930;52.766;6.884;2023-05-08T01:56:08;11.80;99.90
53045;DHT22;38930;52.766;6.884;2023-05-08T01:58:36;11.70;99.90
53045;DHT22;38930;52.766;6.884;2023-05-08T02:01:02;12.20;99.90
53045;DHT22;38930;52.766;6.884;2023-05-08T02:03:30;11.70;99.90
53045;DHT22;38930;52.766;6.884;2023-05-08T02:05:56;11.70;99.90
53045;DHT22;38930;52.766;6.884;2023-05-08T02:08:23;11.60;99.90
53045;DHT22;38930;52.766;6.884;2023-05-08T02:10:51;11.50;99.90
53045;DHT22;38930;52.766;6.884;2023-05-08T02:13:18;11.90;99.90
53045;DHT22;38930;52.766;6.884;2023-05-08T02:15:47;11.60;99.90
53045;DHT22;38930;52.766;6.884;2023-05-08T02:18:14;11.50;99.90
53045;DHT22;38930;52.766;6.884;2023-05-08T02:20:40;11.50;99.90
53045;DHT22;38930;52.766;6.884;2023-05-08T02:23:06;11.40;99.90
53045;DHT22;38930;52.766;6.884;2023-05-08T02:25:34;11.30;99.90
53045;DHT22;38930;52.766;6.884;2023-05-08T02:28:00;11.30;99.90
53045;DHT22;38930;52.766;6.884;2023-05-08T02:30:27;11.30;99.90
53045;DHT22;38930;52.766;6.884;2023-05-08T02:32:55;11.20;99.90
53045;DHT22;38930;52.766;6.884;2023-05-08T02:35:22;11.20;99.90
53045;DHT22;38930;52.766;6.884;2023-05-08T02:37:51;11.10;99.90
53045;DHT22;38930;52.766;6.884;2023-05-08T02:40:19;11.10;99.90
53045;DHT22;38930;52.766;6.884;2023-05-08T02:42:46;11.10;99.90
53045;DHT22;38930;52.766;6.884;2023-05-08T02:45:13;11.00;99.90
53045;DHT22;38930;52.766;6.884;2023-05-08T02:47:55;11.00;99.90
53045;DHT22;38930;52.766;6.884;2023-05-08T02:50:36;10.90;99.90
53045;DHT22;38930;52.766;6.884;2023-05-08T02:53:05;10.90;99.90
53045;DHT22;38930;52.766;6.884;2023-05-08T02:55:54;10.70;99.90
53045;DHT22;38930;52.766;6.884;2023-05-08T02:58:41;10.80;99.90
53045;DHT22;38930;52.766;6.884;2023-05-08T03:01:22;10.80;99.90
53045;DHT22;38930;52.766;6.884;2023-05-08T03:03:55;10.70;99.90
53045;DHT22;38930;52.766;6.884;2023-05-08T03:06:25;10.70;99.90
53045;DHT22;38930;52.766;6.884;2023-05-08T03:08:52;10.70;99.90
53045;DHT22;38930;52.766;6.884;2023-05-08T03:11:24;10.60;99.90
53045;DHT22;38930;52.766;6.884;2023-05-08T03:13:56;10.60;99.90
53045;DHT22;38930;52.766;6.884;2023-05-08T03:16:24;10.60;99.90
53045;DHT22;38930;52.766;6.884;2023-05-08T03:18:58;10.50;99.90
53045;DHT22;38930;52.766;6.884;2023-05-08T03:21:27;10.40;99.90
53045;DHT22;38930;52.766;6.884;2023-05-08T03:23:56;10.40;99.90
53045;DHT22;38930;52.766;6.884;2023-05-08T03:26:23;10.40;99.90
53045;DHT22;38930;52.766;6.884;2023-05-08T03:28:49;10.40;99.90
53045;DHT22;38930;52.766;6.884;2023-05-08T03:31:17;10.30;99.90
53045;DHT22;38930;52.766;6.884;2023-05-08T03:33:46;10.50;99.90
53045;DHT22;38930;52.766;6.884;2023-05-08T03:36:12;10.30;99.90
53045;DHT22;38930;52.766;6.884;2023-05-08T03:38:38;10.30;99.90
53045;DHT22;38930;52.766;6.884;2023-05-08T03:41:05;10.30;99.90
53045;DHT22;38930;52.766;6.884;2023-05-08T03:43:31;10.40;99.90
53045;DHT22;38930;52.766;6.884;2023-05-08T03:45:57;10.40;99.90
53045;DHT22;38930;52.766;6.884;2023-05-08T03:48:23;10.40;99.90
53045;DHT22;38930;52.766;6.884;2023-05-08T03:50:50;10.70;99.90
53045;DHT22;38930;52.766;6.884;2023-05-08T03:53:16;10.50;99.90
53045;DHT22;38930;52.766;6.884;2023-05-08T03:55:42;11.10;99.90
53045;DHT22;38930;52.766;6.884;2023-05-08T03:58:23;10.70;99.90
53045;DHT22;38930;52.766;6.884;2023-05-08T04:06:16;10.50;99.90
53045;DHT22;38930;52.766;6.884;2023-05-08T04:08:54;10.60;99.90
53045;DHT22;38930;52.766;6.884;2023-05-08T04:14:01;10.20;99.90
53045;DHT22;38930;52.766;6.884;2023-05-08T04:16:29;10.60;99.90
53045;DHT22;38930;52.766;6.884;2023-05-08T04:19:08;10.50;99.90
53045;DHT22;38930;52.766;6.884;2023-05-08T04:21:35;10.60;99.90
53045;DHT22;38930;52.766;6.884;2023-05-08T04:24:06;10.60;99.90
53045;DHT22;38930;52.766;6.884;2023-05-08T04:26:33;10.60;99.90
53045;DHT22;38930;52.766;6.884;2023-05-08T04:28:59;11.20;99.90
53045;DHT22;38930;52.766;6.884;2023-05-08T04:31:25;10.60;99.90
53045;DHT22;38930;52.766;6.884;2023-05-08T04:33:51;10.60;99.90
53045;DHT22;38930;52.766;6.884;2023-05-08T04:36:18;10.70;99.90
53045;DHT22;38930;52.766;6.884;2023-05-08T04:38:43;10.70;99.90
53045;DHT22;38930;52.766;6.884;2023-05-08T04:41:09;10.60;99.90
53045;DHT22;38930;52.766;6.884;2023-05-08T04:43:35;10.70;99.90
53045;DHT22;38930;52.766;6.884;2023-05-08T04:46:02;10.70;99.90
53045;DHT22;38930;52.766;6.884;2023-05-08T04:48:28;10.70;99.90
53045;DHT22;38930;52.766;6.884;2023-05-08T04:50:57;11.20;99.90
53045;DHT22;38930;52.766;6.884;2023-05-08T04:53:22;10.70;99.90
53045;DHT22;38930;52.766;6.884;2023-05-08T04:55:48;10.90;99.90
53045;DHT22;38930;52.766;6.884;2023-05-08T04:58:14;10.80;99.90
53045;DHT22;38930;52.766;6.884;2023-05-08T05:00:39;10.80;99.90
53045;DHT22;38930;52.766;6.884;2023-05-08T05:03:05;10.80;99.90
53045;DHT22;38930;52.766;6.884;2023-05-08T05:05:30;10.80;99.90
53045;DHT22;38930;52.766;6.884;2023-05-08T05:07:56;10.90;99.90
53045;DHT22;38930;52.766;6.884;2023-05-08T05:10:22;10.80;99.90
53045;DHT22;38930;52.766;6.884;2023-05-08T05:12:47;10.80;99.90
53045;DHT22;38930;52.766;6.884;2023-05-08T05:15:13;10.80;99.90
53045;DHT22;38930;52.766;6.884;2023-05-08T05:17:38;10.80;99.90
53045;DHT22;38930;52.766;6.884;2023-05-08T05:20:04;11.20;99.90
53045;DHT22;38930;52.766;6.884;2023-05-08T05:22:32;10.80;99.90
53045;DHT22;38930;52.766;6.884;2023-05-08T05:24:57;10.80;99.90
53045;DHT22;38930;52.766;6.884;2023-05-08T05:27:23;10.80;99.90
53045;DHT22;38930;52.766;6.884;2023-05-08T05:29:49;10.80;99.90
53045;DHT22;38930;52.766;6.884;2023-05-08T05:32:15;11.40;99.90
53045;DHT22;38930;52.766;6.884;2023-05-08T05:34:40;10.90;99.90
53045;DHT22;38930;52.766;6.884;2023-05-08T05:37:06;10.90;99.90
53045;DHT22;38930;52.766;6.884;2023-05-08T05:39:31;11.00;99.90
53045;DHT22;38930;52.766;6.884;2023-05-08T05:41:57;11.10;99.90
53045;DHT22;38930;52.766;6.884;2023-05-08T05:44:23;11.10;99.90
53045;DHT22;38930;52.766;6.884;2023-05-08T05:46:48;11.10;99.90
53045;DHT22;38930;52.766;6.884;2023-05-08T05:49:14;11.20;99.90
53045;DHT22;38930;52.766;6.884;2023-05-08T05:51:40;11.30;99.90
53045;DHT22;38930;52.766;6.884;2023-05-08T05:54:05;11.40;99.90
53045;DHT22;38930;52.766;6.884;2023-05-08T05:56:31;11.40;99.90
53045;DHT22;38930;52.766;6.884;2023-05-08T05:58:56;11.60;99.90
53045;DHT22;38930;52.766;6.884;2023-05-08T06:01:22;11.70;99.90
53045;DHT22;38930;52.766;6.884;2023-05-08T06:03:49;11.80;99.90
53045;DHT22;38930;52.766;6.884;2023-05-08T06:06:15;11.80;99.90
53045;DHT22;38930;52.766;6.884;2023-05-08T06:08:40;12.00;99.90
53045;DHT22;38930;52.766;6.884;2023-05-08T06:11:06;12.00;99.90
53045;DHT22;38930;52.766;6.884;2023-05-08T06:13:32;12.10;99.90
53045;DHT22;38930;52.766;6.884;2023-05-08T06:15:57;12.20;99.90
53045;DHT22;38930;52.766;6.884;2023-05-08T06:18:23;12.40;99.90
53045;DHT22;38930;52.766;6.884;2023-05-08T06:20:55;12.40;99.90
53045;DHT22;38930;52.766;6.884;2023-05-08T06:23:20;12.70;99.90
53045;DHT22;38930;52.766;6.884;2023-05-08T06:25:46;12.80;99.90
53045;DHT22;38930;52.766;6.884;2023-05-08T06:28:12;13.00;99.90
53045;DHT22;38930;52.766;6.884;2023-05-08T06:30:38;12.90;99.90
53045;DHT22;38930;52.766;6.884;2023-05-08T06:33:03;12.80;99.90
53045;DHT22;38930;52.766;6.884;2023-05-08T06:35:29;12.80;99.90
53045;DHT22;38930;52.766;6.884;2023-05-08T06:37:54;12.80;99.90
53045;DHT22;38930;52.766;6.884;2023-05-08T06:40:20;12.70;99.90
53045;DHT22;38930;52.766;6.884;2023-05-08T06:42:46;12.70;99.90
53045;DHT22;38930;52.766;6.884;2023-05-08T06:45:12;12.80;99.90
53045;DHT22;38930;52.766;6.884;2023-05-08T06:47:37;12.90;99.90
53045;DHT22;38930;52.766;6.884;2023-05-08T06:50:03;13.10;99.90
53045;DHT22;38930;52.766;6.884;2023-05-08T06:52:29;13.30;99.90
53045;DHT22;38930;52.766;6.884;2023-05-08T06:54:54;13.40;99.90
53045;DHT22;38930;52.766;6.884;2023-05-08T06:57:20;13.60;99.90
53045;DHT22;38930;52.766;6.884;2023-05-08T06:59:45;13.60;99.90
53045;DHT22;38930;52.766;6.884;2023-05-08T07:02:11;13.80;99.90
53045;DHT22;38930;52.766;6.884;2023-05-08T07:04:37;13.90;99.90
53045;DHT22;38930;52.766;6.884;2023-05-08T07:07:02;14.00;99.90
53045;DHT22;38930;52.766;6.884;2023-05-08T07:09:28;14.10;99.90
53045;DHT22;38930;52.766;6.884;2023-05-08T07:11:53;14.20;99.90
53045;DHT22;38930;52.766;6.884;2023-05-08T07:14:19;14.30;99.90
53045;DHT22;38930;52.766;6.884;2023-05-08T07:16:44;14.60;99.90
53045;DHT22;38930;52.766;6.884;2023-05-08T07:19:10;14.70;99.90
53045;DHT22;38930;52.766;6.884;2023-05-08T07:21:36;14.80;99.90
53045;DHT22;38930;52.766;6.884;2023-05-08T07:24:01;15.00;99.90
53045;DHT22;38930;52.766;6.884;2023-05-08T07:26:27;15.00;99.90
53045;DHT22;38930;52.766;6.884;2023-05-08T07:28:53;15.10;99.90
53045;DHT22;38930;52.766;6.884;2023-05-08T07:31:19;15.10;99.90
53045;DHT22;38930;52.766;6.884;2023-05-08T07:33:44;15.20;99.90
53045;DHT22;38930;52.766;6.884;2023-05-08T07:36:11;15.40;99.90
53045;DHT22;38930;52.766;6.884;2023-05-08T07:38:37;15.50;99.90
53045;DHT22;38930;52.766;6.884;2023-05-08T07:41:02;15.60;99.90
53045;DHT22;38930;52.766;6.884;2023-05-08T07:43:31;15.50;99.90
53045;DHT22;38930;52.766;6.884;2023-05-08T07:45:57;15.60;99.90
53045;DHT22;38930;52.766;6.884;2023-05-08T07:48:23;15.70;99.90
53045;DHT22;38930;52.766;6.884;2023-05-08T07:50:49;15.80;99.90
53045;DHT22;38930;52.766;6.884;2023-05-08T07:53:15;15.90;99.90
53045;DHT22;38930;52.766;6.884;2023-05-08T07:55:40;15.90;99.90
53045;DHT22;38930;52.766;6.884;2023-05-08T07:58:06;16.00;99.90
53045;DHT22;38930;52.766;6.884;2023-05-08T08:00:32;15.90;99.90
53045;DHT22;38930;52.766;6.884;2023-05-08T08:02:57;16.10;99.90
53045;DHT22;38930;52.766;6.884;2023-05-08T08:05:23;16.20;99.90
53045;DHT22;38930;52.766;6.884;2023-05-08T08:07:49;16.30;99.90
53045;DHT22;38930;52.766;6.884;2023-05-08T08:10:15;16.40;99.90
53045;DHT22;38930;52.766;6.884;2023-05-08T08:12:40;16.80;99.90
53045;DHT22;38930;52.766;6.884;2023-05-08T08:15:06;16.50;99.90
53045;DHT22;38930;52.766;6.884;2023-05-08T08:17:32;16.60;99.90
53045;DHT22;38930;52.766;6.884;2023-05-08T08:19:58;16.70;99.90
53045;DHT22;38930;52.766;6.884;2023-05-08T08:22:24;16.70;99.90
53045;DHT22;38930;52.766;6.884;2023-05-08T08:24:50;16.80;99.90
53045;DHT22;38930;52.766;6.884;2023-05-08T08:27:16;17.00;99.90
53045;DHT22;38930;52.766;6.884;2023-05-08T08:29:41;17.10;99.90
53045;DHT22;38930;52.766;6.884;2023-05-08T08:32:07;17.10;99.90
53045;DHT22;38930;52.766;6.884;2023-05-08T08:34:33;17.20;99.90
53045;DHT22;38930;52.766;6.884;2023-05-08T08:36:59;17.20;99.90
53045;DHT22;38930;52.766;6.884;2023-05-08T08:39:24;17.20;99.90
53045;DHT22;38930;52.766;6.884;2023-05-08T08:41:50;17.30;99.90
53045;DHT22;38930;52.766;6.884;2023-05-08T08:44:15;17.40;99.90
53045;DHT22;38930;52.766;6.884;2023-05-08T08:46:43;17.70;99.90
53045;DHT22;38930;52.766;6.884;2023-05-08T08:49:17;17.60;99.90
53045;DHT22;38930;52.766;6.884;2023-05-08T08:51:49;17.80;99.90
53045;DHT22;38930;52.766;6.884;2023-05-08T08:54:20;17.80;99.90
53045;DHT22;38930;52.766;6.884;2023-05-08T08:56:48;17.80;99.90
53045;DHT22;38930;52.766;6.884;2023-05-08T08:59:15;18.00;99.90
53045;DHT22;38930;52.766;6.884;2023-05-08T09:01:43;18.00;99.90
53045;DHT22;38930;52.766;6.884;2023-05-08T09:04:09;18.10;99.90
53045;DHT22;38930;52.766;6.884;2023-05-08T09:06:36;18.20;99.90
53045;DHT22;38930;52.766;6.884;2023-05-08T09:09:03;18.30;99.90
53045;DHT22;38930;52.766;6.884;2023-05-08T09:11:28;18.40;99.90
53045;DHT22;38930;52.766;6.884;2023-05-08T09:13:54;18.40;99.90
53045;DHT22;38930;52.766;6.884;2023-05-08T09:16:21;18.20;99.90
53045;DHT22;38930;52.766;6.884;2023-05-08T09:18:47;18.10;99.90
53045;DHT22;38930;52.766;6.884;2023-05-08T09:21:13;18.10;99.90
53045;DHT22;38930;52.766;6.884;2023-05-08T09:23:57;18.20;99.90
53045;DHT22;38930;52.766;6.884;2023-05-08T09:26:33;18.30;99.90
53045;DHT22;38930;52.766;6.884;2023-05-08T09:29:12;18.50;99.90
53045;DHT22;38930;52.766;6.884;2023-05-08T09:31:43;18.60;99.90
53045;DHT22;38930;52.766;6.884;2023-05-08T09:34:20;18.60;99.90
53045;DHT22;38930;52.766;6.884;2023-05-08T09:36:48;18.60;99.90
53045;DHT22;38930;52.766;6.884;2023-05-08T09:39:24;18.80;99.90
53045;DHT22;38930;52.766;6.884;2023-05-08T09:41:57;19.00;99.90
53045;DHT22;38930;52.766;6.884;2023-05-08T09:44:23;19.10;99.90
53045;DHT22;38930;52.766;6.884;2023-05-08T09:46:48;19.30;99.90
53045;DHT22;38930;52.766;6.884;2023-05-08T09:49:18;19.40;99.90
53045;DHT22;38930;52.766;6.884;2023-05-08T09:51:53;19.40;99.90
53045;DHT22;38930;52.766;6.884;2023-05-08T09:54:19;19.60;99.90
53045;DHT22;38930;52.766;6.884;2023-05-08T09:56:45;19.80;99.90
53045;DHT22;38930;52.766;6.884;2023-05-08T09:59:29;19.90;99.90
53045;DHT22;38930;52.766;6.884;2023-05-08T10:01:55;19.90;99.90
53045;DHT22;38930;52.766;6.884;2023-05-08T10:04:34;20.00;99.90
53045;DHT22;38930;52.766;6.884;2023-05-08T10:07:00;20.10;99.90
53045;DHT22;38930;52.766;6.884;2023-05-08T10:09:26;20.10;99.90
53045;DHT22;38930;52.766;6.884;2023-05-08T10:11:52;19.90;99.90
53045;DHT22;38930;52.766;6.884;2023-05-08T10:14:20;19.80;99.90
53045;DHT22;38930;52.766;6.884;2023-05-08T10:16:46;19.80;99.90
53045;DHT22;38930;52.766;6.884;2023-05-08T10:19:22;19.90;99.90
53045;DHT22;38930;52.766;6.884;2023-05-08T10:21:52;19.90;99.90
53045;DHT22;38930;52.766;6.884;2023-05-08T10:24:32;20.20;99.90
53045;DHT22;38930;52.766;6.884;2023-05-08T10:27:18;20.40;99.90
53045;DHT22;38930;52.766;6.884;2023-05-08T10:29:51;20.30;99.90
53045;DHT22;38930;52.766;6.884;2023-05-08T10:32:23;20.30;99.90
53045;DHT22;38930;52.766;6.884;2023-05-08T10:34:57;20.20;99.90
53045;DHT22;38930;52.766;6.884;2023-05-08T10:37:23;20.20;99.90
53045;DHT22;38930;52.766;6.884;2023-05-08T10:39:49;20.30;99.90
53045;DHT22;38930;52.766;6.884;2023-05-08T10:42:16;20.20;99.90
53045;DHT22;38930;52.766;6.884;2023-05-08T10:44:42;20.30;99.90
53045;DHT22;38930;52.766;6.884;2023-05-08T10:50:13;20.30;99.90
53045;DHT22;38930;52.766;6.884;2023-05-08T10:52:49;20.40;99.90
53045;DHT22;38930;52.766;6.884;2023-05-08T10:55:21;20.50;99.90
53045;DHT22;38930;52.766;6.884;2023-05-08T10:58:06;20.50;99.90
53045;DHT22;38930;52.766;6.884;2023-05-08T11:03:27;20.70;99.90
53045;DHT22;38930;52.766;6.884;2023-05-08T11:05:54;20.90;99.90
53045;DHT22;38930;52.766;6.884;2023-05-08T11:08:25;21.00;99.90
53045;DHT22;38930;52.766;6.884;2023-05-08T11:13:31;21.70;99.90
53045;DHT22;38930;52.766;6.884;2023-05-08T11:15:57;21.90;99.90
53045;DHT22;38930;52.766;6.884;2023-05-08T11:18:23;22.20;99.90
53045;DHT22;38930;52.766;6.884;2023-05-08T11:23:28;22.40;99.90
53045;DHT22;38930;52.766;6.884;2023-05-08T11:25:59;22.50;99.90
53045;DHT22;38930;52.766;6.884;2023-05-08T11:29:00;22.60;99.90
53045;DHT22;38930;52.766;6.884;2023-05-08T11:31:48;22.70;99.90
53045;DHT22;38930;52.766;6.884;2023-05-08T11:34:43;22.60;99.90
53045;DHT22;38930;52.766;6.884;2023-05-08T11:37:18;22.40;99.90
53045;DHT22;38930;52.766;6.884;2023-05-08T11:39:43;22.40;99.90
53045;DHT22;38930;52.766;6.884;2023-05-08T11:42:32;22.50;99.90
53045;DHT22;38930;52.766;6.884;2023-05-08T11:45:11;22.30;99.90
53045;DHT22;38930;52.766;6.884;2023-05-08T11:47:39;22.20;99.90
53045;DHT22;38930;52.766;6.884;2023-05-08T11:50:07;22.40;99.90
53045;DHT22;38930;52.766;6.884;2023-05-08T11:52:35;22.40;99.90
53045;DHT22;38930;52.766;6.884;2023-05-08T11:55:08;22.40;99.90
53045;DHT22;38930;52.766;6.884;2023-05-08T11:57:34;22.40;99.90
53045;DHT22;38930;52.766;6.884;2023-05-08T12:00:05;22.40;99.90
53045;DHT22;38930;52.766;6.884;2023-05-08T12:02:40;22.40;99.90
53045;DHT22;38930;52.766;6.884;2023-05-08T12:05:09;22.30;99.90
53045;DHT22;38930;52.766;6.884;2023-05-08T12:07:45;22.20;99.90
53045;DHT22;38930;52.766;6.884;2023-05-08T12:10:12;22.30;99.90
53045;DHT22;38930;52.766;6.884;2023-05-08T12:12:41;22.50;99.90
53045;DHT22;38930;52.766;6.884;2023-05-08T12:15:11;22.70;99.90
53045;DHT22;38930;52.766;6.884;2023-05-08T12:17:37;22.90;99.90
53045;DHT22;38930;52.766;6.884;2023-05-08T12:20:13;22.90;99.90
53045;DHT22;38930;52.766;6.884;2023-05-08T12:22:40;23.00;99.90
53045;DHT22;38930;52.766;6.884;2023-05-08T12:25:07;23.10;99.90
53045;DHT22;38930;52.766;6.884;2023-05-08T12:27:35;22.90;99.90
53045;DHT22;38930;52.766;6.884;2023-05-08T12:30:06;22.80;99.90
53045;DHT22;38930;52.766;6.884;2023-05-08T12:32:35;22.80;99.90
53045;DHT22;38930;52.766;6.884;2023-05-08T12:35:01;22.90;99.90
53045;DHT22;38930;52.766;6.884;2023-05-08T12:37:27;23.00;99.90
53045;DHT22;38930;52.766;6.884;2023-05-08T12:39:53;22.90;99.90
53045;DHT22;38930;52.766;6.884;2023-05-08T12:42:19;23.00;99.90
53045;DHT22;38930;52.766;6.884;2023-05-08T12:44:52;22.90;99.90
53045;DHT22;38930;52.766;6.884;2023-05-08T12:47:18;22.70;99.90
53045;DHT22;38930;52.766;6.884;2023-05-08T12:49:45;22.60;99.90
53045;DHT22;38930;52.766;6.884;2023-05-08T12:52:14;22.60;99.90
53045;DHT22;38930;52.766;6.884;2023-05-08T12:54:47;22.60;99.90
53045;DHT22;38930;52.766;6.884;2023-05-08T12:57:17;22.60;99.90
53045;DHT22;38930;52.766;6.884;2023-05-08T12:59:44;22.60;99.90
53045;DHT22;38930;52.766;6.884;2023-05-08T13:02:14;22.60;99.90
53045;DHT22;38930;52.766;6.884;2023-05-08T13:04:39;22.70;99.90
53045;DHT22;38930;52.766;6.884;2023-05-08T13:07:05;22.70;99.90
53045;DHT22;38930;52.766;6.884;2023-05-08T13:09:31;22.60;99.90
53045;DHT22;38930;52.766;6.884;2023-05-08T13:11:57;22.70;99.90
53045;DHT22;38930;52.766;6.884;2023-05-08T13:14:23;22.80;99.90
53045;DHT22;38930;52.766;6.884;2023-05-08T13:16:48;22.80;99.90
53045;DHT22;38930;52.766;6.884;2023-05-08T13:19:16;22.60;99.90
53045;DHT22;38930;52.766;6.884;2023-05-08T13:21:42;22.70;99.90
53045;DHT22;38930;52.766;6.884;2023-05-08T13:24:15;22.70;99.90
53045;DHT22;38930;52.766;6.884;2023-05-08T13:26:41;22.70;99.90
53045;DHT22;38930;52.766;6.884;2023-05-08T13:29:07;22.70;99.90
53045;DHT22;38930;52.766;6.884;2023-05-08T13:31:32;22.80;99.90
53045;DHT22;38930;52.766;6.884;2023-05-08T13:33:58;22.80;99.90
53045;DHT22;38930;52.766;6.884;2023-05-08T13:36:24;22.90;99.90
53045;DHT22;38930;52.766;6.884;2023-05-08T13:38:50;23.00;99.90
53045;DHT22;38930;52.766;6.884;2023-05-08T13:41:19;23.00;99.90
53045;DHT22;38930;52.766;6.884;2023-05-08T13:43:46;23.00;99.90
53045;DHT22;38930;52.766;6.884;2023-05-08T13:46:11;23.00;99.90
53045;DHT22;38930;52.766;6.884;2023-05-08T13:48:37;22.90;99.90
53045;DHT22;38930;52.766;6.884;2023-05-08T13:51:03;22.80;99.90
53045;DHT22;38930;52.766;6.884;2023-05-08T13:53:28;22.80;99.90
53045;DHT22;38930;52.766;6.884;2023-05-08T13:55:54;22.60;99.90
53045;DHT22;38930;52.766;6.884;2023-05-08T13:58:20;22.50;99.90
53045;DHT22;38930;52.766;6.884;2023-05-08T14:00:46;22.30;99.90
53045;DHT22;38930;52.766;6.884;2023-05-08T14:03:12;22.30;99.90
53045;DHT22;38930;52.766;6.884;2023-05-08T14:05:37;22.20;99.90
53045;DHT22;38930;52.766;6.884;2023-05-08T14:08:03;22.10;99.90
53045;DHT22;38930;52.766;6.884;2023-05-08T14:10:28;21.90;99.90
53045;DHT22;38930;52.766;6.884;2023-05-08T14:12:54;21.80;99.90
53045;DHT22;38930;52.766;6.884;2023-05-08T14:15:20;21.80;99.90
53045;DHT22;38930;52.766;6.884;2023-05-08T14:17:45;21.60;99.90
53045;DHT22;38930;52.766;6.884;2023-05-08T14:20:11;21.50;99.90
53045;DHT22;38930;52.766;6.884;2023-05-08T14:22:37;21.40;99.90
53045;DHT22;38930;52.766;6.884;2023-05-08T14:25:03;21.30;99.90
53045;DHT22;38930;52.766;6.884;2023-05-08T14:27:28;21.10;99.90
53045;DHT22;38930;52.766;6.884;2023-05-08T14:29:54;21.00;99.90
53045;DHT22;38930;52.766;6.884;2023-05-08T14:32:20;20.90;99.90
53045;DHT22;38930;52.766;6.884;2023-05-08T14:34:45;20.70;99.90
53045;DHT22;38930;52.766;6.884;2023-05-08T14:37:11;20.50;99.90
53045;DHT22;38930;52.766;6.884;2023-05-08T14:39:37;20.30;99.90
53045;DHT22;38930;52.766;6.884;2023-05-08T14:42:03;20.10;99.90
53045;DHT22;38930;52.766;6.884;2023-05-08T14:44:28;19.90;99.90
53045;DHT22;38930;52.766;6.884;2023-05-08T14:46:54;19.70;99.90
53045;DHT22;38930;52.766;6.884;2023-05-08T14:49:19;19.60;99.90
53045;DHT22;38930;52.766;6.884;2023-05-08T14:51:45;19.50;99.90
53045;DHT22;38930;52.766;6.884;2023-05-08T14:54:11;19.40;99.90
53045;DHT22;38930;52.766;6.884;2023-05-08T14:56:36;19.40;99.90
53045;DHT22;38930;52.766;6.884;2023-05-08T14:59:02;19.30;99.90
53045;DHT22;38930;52.766;6.884;2023-05-08T15:01:27;19.20;99.90
53045;DHT22;38930;52.766;6.884;2023-05-08T15:03:53;19.10;99.90
53045;DHT22;38930;52.766;6.884;2023-05-08T15:06:20;19.10;99.90
53045;DHT22;38930;52.766;6.884;2023-05-08T15:08:46;19.00;99.90
53045;DHT22;38930;52.766;6.884;2023-05-08T15:11:12;19.00;99.90
53045;DHT22;38930;52.766;6.884;2023-05-08T15:13:38;19.00;99.90
53045;DHT22;38930;52.766;6.884;2023-05-08T15:16:04;19.00;99.90
53045;DHT22;38930;52.766;6.884;2023-05-08T15:18:30;19.10;99.90
53045;DHT22;38930;52.766;6.884;2023-05-08T15:20:55;19.00;99.90
53045;DHT22;38930;52.766;6.884;2023-05-08T15:23:22;19.00;99.90
53045;DHT22;38930;52.766;6.884;2023-05-08T15:25:48;19.10;99.90
53045;DHT22;38930;52.766;6.884;2023-05-08T15:28:14;19.00;99.90
53045;DHT22;38930;52.766;6.884;2023-05-08T15:30:39;19.00;99.90
53045;DHT22;38930;52.766;6.884;2023-05-08T15:33:05;19.00;99.90
53045;DHT22;38930;52.766;6.884;2023-05-08T15:35:30;19.00;99.90
53045;DHT22;38930;52.766;6.884;2023-05-08T15:37:56;19.00;99.90
53045;DHT22;38930;52.766;6.884;2023-05-08T15:40:22;19.10;99.90
53045;DHT22;38930;52.766;6.884;2023-05-08T15:42:47;19.20;99.90
53045;DHT22;38930;52.766;6.884;2023-05-08T15:45:13;19.20;99.90
53045;DHT22;38930;52.766;6.884;2023-05-08T15:47:39;19.30;99.90
53045;DHT22;38930;52.766;6.884;2023-05-08T15:50:05;19.40;99.90
53045;DHT22;38930;52.766;6.884;2023-05-08T15:52:31;19.50;99.90
53045;DHT22;38930;52.766;6.884;2023-05-08T15:54:56;19.50;99.90
53045;DHT22;38930;52.766;6.884;2023-05-08T15:57:22;19.60;99.90
53045;DHT22;38930;52.766;6.884;2023-05-08T15:59:48;19.70;99.90
53045;DHT22;38930;52.766;6.884;2023-05-08T16:02:13;19.80;99.90
53045;DHT22;38930;52.766;6.884;2023-05-08T16:04:39;19.90;99.90
53045;DHT22;38930;52.766;6.884;2023-05-08T16:07:05;20.00;99.90
53045;DHT22;38930;52.766;6.884;2023-05-08T16:09:30;20.10;99.90